Lake Hopatcong, New Jersey
Current Conditions -  °F | °C
As of 2:45 PM on Saturday 25 Oct 2014 (Local Time) from KMMU Reporting Station
Clear Clear  
Wind Chill: 68°   Ceiling: Unl
Heat Index: 68°   Visibility: 20mi
Dew Point: 43°   Wind: 15mph
Humidity: 40%   Direction: 290°WNW
Pressure: 29.71"   Gusts: 23mph
Location:  40.95°N, 74.62°W
Report Text: KMMU 251845Z 29013G20KT 20SM SKC 20/06 A2971
Loading
Personal Weather Stations






























Interactive Weather Map
Tropical Storm Tracking
New forecast layout! Learn more

10-Day Weather Forecast

Advertisements
Track Severe Weather on mobile